Time;durP1;ratioP1;P1;durP2;ratioP2;P2;SDS_P1;SDS_P2;PMS_P1;PMS_P2;Temp;Humidity;BMP_temperature;BMP_pressure;BME280_temperature;BME280_humidity;BME280_pressure;Samples;Min_cycle;Max_cycle;Signal;HPM_P1;HPM_P2
2021/11/19 00:00:09;;;;;;;22.70;13.98;;;;;;;11.08;78.17;101523.97;5065304;28;20512;-55
2021/11/19 00:02:37;;;;;;;18.92;14.80;;;;;;;11.09;78.26;101529.25;5066306;28;20066;-56
2021/11/19 00:05:06;;;;;;;20.30;13.95;;;;;;;11.15;78.11;101521.69;5066270;28;20072;-56
2021/11/19 00:07:34;;;;;;;21.80;14.32;;;;;;;11.09;78.31;101515.31;5058276;28;20072;-57
2021/11/19 00:10:03;;;;;;;19.00;12.73;;;;;;;11.05;78.30;101524.56;5071904;28;20413;-56
2021/11/19 00:12:32;;;;;;;21.48;14.85;;;;;;;11.10;78.35;101524.50;5072297;28;20124;-56
2021/11/19 00:14:59;;;;;;;20.40;13.88;;;;;;;11.10;78.15;101527.28;5070612;28;20052;-56
2021/11/19 00:17:27;;;;;;;19.17;13.65;;;;;;;11.13;78.27;101526.72;5070775;28;20056;-54
2021/11/19 00:19:54;;;;;;;20.85;14.30;;;;;;;11.12;78.22;101523.06;5072183;28;20063;-54
2021/11/19 00:22:22;;;;;;;25.85;16.13;;;;;;;11.05;78.84;101518.97;5072199;28;20059;-56
2021/11/19 00:24:49;;;;;;;22.98;14.98;;;;;;;11.06;79.22;101513.09;5064104;28;20061;-56
2021/11/19 00:27:21;;;;;;;23.13;15.38;;;;;;;10.97;79.53;101526.00;5052044;28;20127;-54
2021/11/19 00:29:50;;;;;;;25.90;16.83;;;;;;;10.95;79.71;101523.50;5058064;28;20076;-55
2021/11/19 00:32:17;;;;;;;25.55;16.45;;;;;;;11.08;79.37;101526.75;5070357;28;20067;-54
2021/11/19 00:34:45;;;;;;;24.02;16.02;;;;;;;10.89;80.31;101523.84;5072409;28;20393;-55
2021/11/19 00:37:13;;;;;;;21.90;15.57;;;;;;;10.90;79.99;101526.34;5071873;28;20409;-56
2021/11/19 00:39:40;;;;;;;26.17;16.55;;;;;;;10.97;80.05;101510.09;5071887;28;20059;-56
2021/11/19 00:42:09;;;;;;;21.48;14.85;;;;;;;11.04;79.70;101520.09;5072530;28;20481;-56
2021/11/19 00:44:37;;;;;;;29.25;17.63;;;;;;;11.01;80.41;101504.78;5072318;28;20076;-55
2021/11/19 00:47:08;;;;;;;27.27;17.00;;;;;;;11.11;79.89;101506.66;5056313;28;20064;-54
2021/11/19 00:49:38;;;;;;;24.48;16.60;;;;;;;11.15;79.57;101516.09;5052492;28;20063;-55
2021/11/19 00:52:07;;;;;;;31.08;17.80;;;;;;;11.18;79.25;101512.72;5052439;28;20053;-55
2021/11/19 00:54:35;;;;;;;24.67;17.13;;;;;;;11.05;79.62;101510.63;5052414;28;20054;-54
2021/11/19 00:57:06;;;;;;;25.67;17.30;;;;;;;11.06;80.16;101512.25;5052362;28;20064;-54
2021/11/19 00:59:36;;;;;;;31.13;19.15;;;;;;;11.06;79.89;101517.84;5051950;28;20057;-58
2021/11/19 01:02:08;;;;;;;28.38;16.65;;;;;;;11.16;79.36;101514.97;5065625;28;20068;-55
2021/11/19 01:04:36;;;;;;;28.48;17.48;;;;;;;11.13;80.05;101515.56;5071665;28;20065;-56
2021/11/19 01:07:05;;;;;;;26.33;16.63;;;;;;;11.12;79.47;101523.06;5069923;28;20052;-57
2021/11/19 01:09:34;;;;;;;26.90;16.77;;;;;;;11.03;79.83;101518.44;5051654;28;20053;-57
2021/11/19 01:12:04;;;;;;;28.15;17.98;;;;;;;11.07;79.85;101522.31;5054857;28;20048;-56
2021/11/19 01:14:35;;;;;;;29.25;17.42;;;;;;;10.99;79.97;101529.34;5071592;28;20063;-55
2021/11/19 01:17:06;;;;;;;29.05;19.08;;;;;;;10.87;80.91;101532.47;5071414;28;20057;-55
2021/11/19 01:19:38;;;;;;;27.85;17.80;;;;;;;11.00;80.43;101530.97;5071394;28;20059;-57
2021/11/19 01:22:08;;;;;;;26.27;17.52;;;;;;;10.95;80.76;101531.84;5071608;28;20056;-57
2021/11/19 01:24:37;;;;;;;26.73;17.83;;;;;;;11.12;80.28;101527.81;5061177;28;20061;-55
2021/11/19 01:27:08;;;;;;;25.42;17.20;;;;;;;10.99;80.80;101542.44;5067328;28;20060;-56
2021/11/19 01:29:35;;;;;;;27.65;17.88;;;;;;;11.06;80.76;101538.19;5061133;28;20053;-57
2021/11/19 01:32:05;;;;;;;34.25;19.63;;;;;;;11.09;80.63;101545.16;5066882;28;20060;-57
2021/11/19 01:34:33;;;;;;;31.70;18.35;;;;;;;11.15;80.53;101547.59;5071554;28;20057;-56
2021/11/19 01:37:02;;;;;;;26.15;17.23;;;;;;;11.18;80.43;101532.25;5071093;28;20057;-57
2021/11/19 01:39:32;;;;;;;27.15;17.92;;;;;;;11.14;80.57;101537.56;5071321;28;20068;-55
2021/11/19 01:42:02;;;;;;;29.95;18.63;;;;;;;11.14;80.27;101531.16;5071000;28;20056;-55
2021/11/19 01:44:32;;;;;;;28.88;18.42;;;;;;;11.09;80.29;101542.38;5071505;28;20056;-57
2021/11/19 01:47:03;;;;;;;27.88;18.88;;;;;;;11.15;80.53;101533.66;5073617;28;20049;-57
2021/11/19 01:49:31;;;;;;;27.58;18.67;;;;;;;11.01;80.91;101526.25;5074799;28;20492;-58
2021/11/19 01:52:06;;;;;;;29.48;18.58;;;;;;;10.93;81.03;101539.69;5074879;28;20087;-57
2021/11/19 01:54:37;;;;;;;26.98;17.75;;;;;;;11.10;80.33;101535.66;5074396;28;20064;-54
2021/11/19 01:57:11;;;;;;;32.88;18.95;;;;;;;11.25;79.88;101543.88;5075200;28;20063;-57
2021/11/19 01:59:41;;;;;;;27.85;17.60;;;;;;;11.22;80.02;101538.91;5074954;28;20053;-54
2021/11/19 02:02:11;;;;;;;26.08;19.02;;;;;;;11.24;80.22;101541.41;5067256;28;20472;-57
2021/11/19 02:04:41;;;;;;;29.20;18.17;;;;;;;11.17;80.01;101538.91;5074362;28;20057;-56
2021/11/19 02:07:15;;;;;;;31.45;19.77;;;;;;;11.25;80.17;101543.06;5074233;28;20490;-57
2021/11/19 02:09:50;;;;;;;31.65;21.38;;;;;;;11.33;79.80;101545.22;5075009;28;20409;-57
2021/11/19 02:12:29;;;;;;;34.45;20.52;;;;;;;11.13;80.08;101544.28;5074496;28;20083;-56
2021/11/19 02:15:05;;;;;;;29.45;18.42;;;;;;;11.17;80.27;101545.34;5074662;28;20057;-55
2021/11/19 02:17:34;;;;;;;33.70;20.30;;;;;;;11.21;79.98;101541.97;5072973;28;20057;-56
2021/11/19 02:20:06;;;;;;;32.85;21.33;;;;;;;11.18;79.72;101548.97;5073059;28;20051;-56
2021/11/19 02:22:39;;;;;;;35.88;21.90;;;;;;;11.23;79.82;101551.69;5074623;28;20059;-56
2021/11/19 02:25:11;;;;;;;39.08;22.58;;;;;;;11.27;79.98;101549.16;5074729;28;20060;-57
2021/11/19 02:27:43;;;;;;;34.47;21.75;;;;;;;11.17;79.83;101548.16;5074716;28;20060;-57
2021/11/19 02:30:13;;;;;;;31.15;17.77;;;;;;;11.20;79.53;101538.34;5073107;28;20053;-55
2021/11/19 02:32:43;;;;;;;36.55;22.13;;;;;;;11.13;80.49;101532.28;5072093;28;20053;-57
2021/11/19 02:35:12;;;;;;;;;;;;;;;11.10;79.92;101535.66;5065386;28;20053;-57
2021/11/19 02:37:45;;;;;;;36.42;21.08;;;;;;;11.23;79.70;101540.53;5056147;28;19928;-57
2021/11/19 02:40:15;;;;;;;34.33;20.85;;;;;;;11.25;80.08;101532.72;5073671;28;20052;-57
2021/11/19 02:42:45;;;;;;;36.05;22.05;;;;;;;11.31;80.06;101530.72;5073546;28;20063;-57
2021/11/19 02:45:16;;;;;;;36.35;21.70;;;;;;;11.29;80.10;101531.00;5069370;28;20543;-57
2021/11/19 02:47:46;;;;;;;32.08;21.58;;;;;;;11.27;79.98;101536.03;5074302;28;20053;-56
2021/11/19 02:50:18;;;;;;;31.90;19.67;;;;;;;11.24;80.04;101535.81;5067404;28;20063;-54
2021/11/19 02:52:49;;;;;;;34.35;20.88;;;;;;;11.40;79.22;101528.13;5073204;28;20433;-56
2021/11/19 02:55:19;;;;;;;29.38;19.88;;;;;;;11.49;78.59;101532.78;5074042;28;20060;-57
2021/11/19 02:57:47;;;;;;;29.88;19.98;;;;;;;11.34;79.28;101528.19;5073442;28;20049;-58
2021/11/19 03:00:18;;;;;;;29.95;19.95;;;;;;;11.46;78.89;101530.56;5069537;28;20061;-56
2021/11/19 03:02:45;;;;;;;32.30;20.27;;;;;;;11.33;79.68;101528.47;5073673;28;20060;-58
2021/11/19 03:05:15;;;;;;;31.88;20.10;;;;;;;11.39;79.32;101527.31;5073064;28;20071;-55
2021/11/19 03:07:45;;;;;;;25.00;17.48;;;;;;;11.34;78.90;101530.97;5069126;28;20060;-57
2021/11/19 03:10:18;;;;;;;28.80;19.05;;;;;;;11.33;79.23;101523.72;5070992;28;20079;-58
2021/11/19 03:12:46;;;;;;;26.17;17.10;;;;;;;11.26;79.61;101531.59;5063425;28;20099;-57
2021/11/19 03:15:17;;;;;;;24.00;17.30;;;;;;;11.19;79.76;101533.88;5058906;28;20397;-56
2021/11/19 03:17:45;;;;;;;21.95;15.93;;;;;;;11.04;80.46;101526.50;5064446;28;20532;-56
2021/11/19 03:20:15;;;;;;;21.17;14.13;;;;;;;11.25;79.57;101532.72;5073781;28;20057;-55
2021/11/19 03:22:44;;;;;;;27.42;18.15;;;;;;;11.34;79.12;101525.41;5070751;28;20061;-57
2021/11/19 03:25:16;;;;;;;25.85;17.25;;;;;;;11.45;79.11;101519.72;5072952;28;20481;-55
2021/11/19 03:27:45;;;;;;;22.83;16.77;;;;;;;11.36;79.51;101519.53;5073209;28;20067;-55
2021/11/19 03:30:16;;;;;;;22.03;15.90;;;;;;;11.43;79.16;101524.75;5072598;28;20052;-58
2021/11/19 03:32:45;;;;;;;24.33;15.98;;;;;;;11.43;79.31;101522.78;5072645;28;20060;-57
2021/11/19 03:35:14;;;;;;;20.25;14.40;;;;;;;11.53;78.95;101521.88;5073145;28;20052;-56
2021/11/19 03:37:42;;;;;;;17.33;13.63;;;;;;;11.53;78.79;101522.69;5069387;28;20057;-56
2021/11/19 03:40:12;;;;;;;15.32;11.73;;;;;;;11.45;78.37;101512.19;5053201;28;20053;-57
2021/11/19 03:42:41;;;;;;;19.00;13.85;;;;;;;11.38;79.09;101515.31;5060469;28;20056;-55
2021/11/19 03:45:13;;;;;;;18.98;14.65;;;;;;;11.38;78.84;101520.91;5073071;28;20054;-57
2021/11/19 03:47:44;;;;;;;18.50;12.73;;;;;;;11.49;78.45;101518.00;5072551;28;20067;-57
2021/11/19 03:50:24;;;;;;;21.67;14.77;;;;;;;11.30;79.48;101529.06;5072699;28;20044;-56
2021/11/19 03:52:51;;;;;;;19.50;13.93;;;;;;;11.25;79.79;101537.47;5070308;28;20057;-56
2021/11/19 04:02:05;;;;;;;21.95;13.95;;;;;;;11.43;79.26;101535.91;4837252;28;20398;-81
2021/11/19 04:04:34;;;;;;;20.73;14.77;;;;;;;11.57;78.79;101537.72;5052921;28;20421;-81
2021/11/19 04:07:04;;;;;;;20.35;14.93;;;;;;;11.48;79.16;101535.84;5052831;28;20053;-81
2021/11/19 04:09:31;;;;;;;20.38;14.27;;;;;;;11.70;78.25;101543.72;5052080;28;20057;-81
2021/11/19 04:12:00;;;;;;;20.50;15.25;;;;;;;11.66;78.94;101539.88;5054134;28;20061;-81
2021/11/19 04:14:28;;;;;;;19.52;14.25;;;;;;;11.76;78.37;101548.97;5034340;28;20500;-80
2021/11/19 04:16:57;;;;;;;22.10;15.68;;;;;;;11.83;78.21;101542.19;5034446;28;20057;-81
2021/11/19 04:19:30;;;;;;;22.08;15.32;;;;;;;11.87;78.19;101540.47;5034096;28;20050;-81
2021/11/19 04:22:00;;;;;;;25.35;16.52;;;;;;;11.94;78.21;101536.22;5033596;28;20056;-81
2021/11/19 04:24:32;;;;;;;21.80;15.85;;;;;;;11.86;78.59;101542.41;5035183;28;20497;-81
2021/11/19 04:27:00;;;;;;;23.42;15.63;;;;;;;11.98;78.32;101544.81;5033791;28;20053;-81
2021/11/19 04:29:27;;;;;;;22.80;15.73;;;;;;;11.90;78.58;101548.28;5034833;28;20057;-81
2021/11/19 04:31:55;;;;;;;22.63;16.17;;;;;;;11.86;78.76;101548.00;5033617;28;20053;-81
2021/11/19 04:34:23;;;;;;;21.05;14.57;;;;;;;11.94;78.22;101543.75;5034386;28;20426;-81
2021/11/19 04:36:51;;;;;;;19.10;14.18;;;;;;;11.89;78.83;101546.63;5034100;28;20521;-81
2021/11/19 04:39:20;;;;;;;23.30;16.07;;;;;;;11.69;79.12;101536.47;5033577;28;20053;-81
2021/11/19 04:41:49;;;;;;;22.23;16.08;;;;;;;11.88;79.07;101542.13;5033981;28;20057;-81
2021/11/19 04:44:16;;;;;;;17.95;14.43;;;;;;;11.77;78.57;101545.03;5033959;28;20064;-81
2021/11/19 04:46:45;;;;;;;18.67;13.40;;;;;;;11.86;78.79;101541.59;5033918;28;20064;-81
2021/11/19 04:49:13;;;;;;;20.75;14.48;;;;;;;11.60;79.68;101539.09;5033989;28;20057;-81
2021/11/19 04:51:42;;;;;;;22.67;15.15;;;;;;;11.70;79.68;101535.38;5033994;28;20065;-81
2021/11/19 04:54:11;;;;;;;22.40;14.40;;;;;;;11.66;79.98;101537.09;5033220;28;20045;-80
2021/11/19 04:56:44;;;;;;;16.95;12.63;;;;;;;11.87;78.84;101537.69;5053056;28;20075;-80
2021/11/19 04:59:12;;;;;;;23.35;14.75;;;;;;;11.94;78.58;101532.59;5044269;28;20049;-80
2021/11/19 05:01:43;;;;;;;20.42;13.75;;;;;;;11.62;79.63;101536.84;5021092;28;20520;-80
2021/11/19 05:04:11;;;;;;;21.25;14.40;;;;;;;11.75;79.60;101529.72;5029831;28;20064;-80
2021/11/19 05:06:39;;;;;;;19.50;14.27;;;;;;;11.80;79.32;101535.25;5031367;28;20072;-80
2021/11/19 05:09:08;;;;;;;21.38;13.93;;;;;;;11.75;79.66;101529.72;5031671;28;20057;-80
2021/11/19 05:11:41;;;;;;;19.52;14.02;;;;;;;11.74;79.41;101534.47;5023959;28;20422;-80
2021/11/19 05:14:09;;;;;;;22.60;15.88;;;;;;;11.75;79.49;101538.09;5013332;28;20074;-80
2021/11/19 05:16:36;;;;;;;22.55;14.98;;;;;;;11.83;79.08;101531.03;5028472;28;20060;-81
2021/11/19 05:19:05;;;;;;;22.25;15.35;;;;;;;11.96;79.12;101527.53;5032562;28;20069;-81
2021/11/19 05:21:33;;;;;;;19.40;13.82;;;;;;;11.78;79.47;101529.13;5029400;28;20060;-81
2021/11/19 05:24:01;;;;;;;18.38;13.10;;;;;;;11.77;78.90;101528.28;5031186;28;20049;-81
2021/11/19 05:26:30;;;;;;;18.65;13.95;;;;;;;11.89;78.81;101533.50;5028438;28;20061;-81
2021/11/19 05:29:00;;;;;;;19.20;13.15;;;;;;;11.77;79.10;101531.06;5028771;28;20054;-81
2021/11/19 05:31:28;;;;;;;15.48;11.73;;;;;;;11.64;79.65;101530.97;5010914;28;20054;-81
2021/11/19 05:33:58;;;;;;;15.80;11.40;;;;;;;11.67;78.91;101528.38;5001436;28;20065;-81
2021/11/19 05:36:26;;;;;;;17.10;13.10;;;;;;;11.74;79.10;101530.84;5035730;28;20049;-81
2021/11/19 05:38:53;;;;;;;13.93;10.30;;;;;;;11.54;79.61;101524.34;5036451;28;20072;-81
2021/11/19 05:41:23;;;;;;;15.95;12.35;;;;;;;11.68;79.54;101535.66;5036314;28;20060;-81
2021/11/19 05:43:52;;;;;;;15.70;12.27;;;;;;;11.56;79.58;101526.84;5030777;28;20081;-81
2021/11/19 05:46:24;;;;;;;15.03;10.47;;;;;;;11.58;80.24;101531.00;5016005;28;20046;-81
2021/11/19 05:48:53;;;;;;;16.52;11.45;;;;;;;11.65;79.45;101533.44;5028911;28;20484;-81
2021/11/19 05:51:23;;;;;;;16.48;11.52;;;;;;;11.66;79.86;101531.50;5036301;28;20053;-80
2021/11/19 05:53:51;;;;;;;16.85;11.85;;;;;;;11.66;79.73;101532.31;5028681;28;20061;-80
2021/11/19 05:56:20;;;;;;;17.23;12.48;;;;;;;11.70;79.95;101532.56;5029873;28;20069;-80
2021/11/19 05:58:48;;;;;;;15.52;11.50;;;;;;;11.66;79.94;101529.53;5018723;28;20486;-80
2021/11/19 06:01:18;;;;;;;17.88;12.85;;;;;;;11.56;80.53;101535.22;5028399;28;20046;-80
2021/11/19 06:03:48;;;;;;;17.73;12.48;;;;;;;11.80;79.69;101529.66;5016178;28;20054;-80
2021/11/19 06:06:16;;;;;;;17.85;11.85;;;;;;;11.81;79.29;101533.28;5017071;28;20046;-81
2021/11/19 06:08:45;;;;;;;16.02;11.32;;;;;;;11.86;79.22;101533.22;5027249;28;20060;-80
2021/11/19 06:11:15;;;;;;;14.65;11.15;;;;;;;11.72;79.96;101535.91;5036664;28;20057;-80
2021/11/19 06:13:47;;;;;;;16.75;11.80;;;;;;;11.68;79.79;101535.66;5018063;28;20058;-81
2021/11/19 06:16:18;;;;;;;16.35;11.10;;;;;;;11.89;79.42;101546.63;5015618;28;20054;-81
2021/11/19 06:18:51;;;;;;;15.07;10.80;;;;;;;11.92;79.04;101548.81;5017367;28;20053;-81
2021/11/19 06:21:22;;;;;;;14.30;11.48;;;;;;;11.70;79.74;101549.31;5010945;28;20511;-80
2021/11/19 06:23:53;;;;;;;15.45;11.20;;;;;;;11.73;79.56;101546.75;5015727;28;20062;-81
2021/11/19 06:26:23;;;;;;;17.75;12.48;;;;;;;11.84;79.99;101553.03;5016344;28;20057;-81
2021/11/19 06:28:54;;;;;;;17.33;12.45;;;;;;;11.88;79.56;101548.56;5034858;28;20054;-81
2021/11/19 06:31:23;;;;;;;18.95;13.10;;;;;;;11.82;79.57;101546.09;5010777;28;20058;-81
2021/11/19 06:33:54;;;;;;;16.13;10.38;;;;;;;11.71;79.83;101549.00;5016041;28;20056;-80
2021/11/19 06:36:21;;;;;;;16.67;12.43;;;;;;;11.68;80.50;101557.16;5017350;28;20050;-81
2021/11/19 06:38:51;;;;;;;18.08;12.88;;;;;;;11.89;79.82;101553.03;5015346;28;20054;-81
2021/11/19 06:41:20;;;;;;;17.63;12.57;;;;;;;11.82;80.08;101551.69;5015596;28;20057;-81
2021/11/19 06:43:47;;;;;;;18.48;12.82;;;;;;;11.86;80.03;101547.16;5035198;28;20064;-81
2021/11/19 06:46:16;;;;;;;19.65;12.90;;;;;;;11.83;80.19;101551.38;5020744;28;20058;-81
2021/11/19 06:48:45;;;;;;;17.05;11.93;;;;;;;11.82;80.30;101562.84;5014516;28;20061;-81
2021/11/19 06:51:14;;;;;;;20.88;13.80;;;;;;;11.88;80.13;101556.94;5033899;28;20058;-81
2021/11/19 06:53:42;;;;;;;17.90;12.90;;;;;;;11.99;79.49;101563.25;5024268;28;20507;-80
2021/11/19 06:56:10;;;;;;;17.58;12.52;;;;;;;11.90;80.16;101565.03;5015686;28;20065;-80
2021/11/19 06:58:38;;;;;;;20.80;14.05;;;;;;;11.93;79.87;101568.06;5013459;28;20122;-80
2021/11/19 07:01:06;;;;;;;17.58;12.57;;;;;;;11.98;80.02;101564.38;5021424;28;20053;-80
2021/11/19 07:03:33;;;;;;;16.88;12.25;;;;;;;12.09;79.30;101563.13;5024955;28;20058;-80
2021/11/19 07:06:01;;;;;;;18.98;13.02;;;;;;;12.09;79.64;101565.91;5014405;28;20045;-80
2021/11/19 07:08:31;;;;;;;18.90;14.05;;;;;;;12.14;79.55;101571.44;5021620;28;20053;-81
2021/11/19 07:11:16;;;;;;;19.52;12.50;;;;;;;12.07;79.29;101570.97;5005916;28;20055;-80
2021/11/19 07:13:44;;;;;;;16.45;11.43;;;;;;;12.00;78.83;101569.66;5011944;28;20054;-80
2021/11/19 07:16:12;;;;;;;20.48;12.45;;;;;;;12.12;79.18;101584.88;5011167;28;20065;-81
2021/11/19 07:18:39;;;;;;;18.73;12.48;;;;;;;12.07;79.79;101581.31;5014850;28;20050;-81
2021/11/19 07:21:06;;;;;;;18.83;12.30;;;;;;;12.21;79.15;101587.00;5013906;28;20404;-81
2021/11/19 07:23:35;;;;;;;17.85;13.10;;;;;;;12.28;78.76;101587.47;4995445;28;20065;-81
2021/11/19 07:26:04;;;;;;;18.58;12.20;;;;;;;12.29;78.94;101584.38;5028746;28;20072;-84
2021/11/19 07:28:32;;;;;;;17.70;12.70;;;;;;;12.19;78.99;101584.50;5035820;28;20428;-85
2021/11/19 07:31:02;;;;;;;20.83;12.43;;;;;;;12.30;78.34;101590.81;5032199;28;20050;-86
2021/11/19 07:33:30;;;;;;;17.40;11.85;;;;;;;12.12;79.37;101589.63;5016293;28;20058;-86
2021/11/19 07:36:00;;;;;;;16.52;10.93;;;;;;;12.18;78.84;101594.03;5015886;28;20422;-85
2021/11/19 07:38:30;;;;;;;16.08;10.95;;;;;;;12.06;78.92;101600.03;5015698;28;20063;-86
2021/11/19 07:41:00;;;;;;;15.98;11.32;;;;;;;12.16;78.48;101599.91;5019244;28;20050;-85
2021/11/19 07:43:30;;;;;;;18.60;12.15;;;;;;;12.16;79.03;101601.88;5027671;28;20061;-81
2021/11/19 07:45:57;;;;;;;;;;;;;;;12.03;79.05;101602.56;5012308;28;20419;-83
2021/11/19 07:48:29;;;;;;;13.82;9.43;;;;;;;12.01;79.30;101602.03;5028662;28;19928;-83
2021/11/19 07:51:02;;;;;;;15.35;9.90;;;;;;;12.09;78.83;101607.78;4996036;28;20067;-83
2021/11/19 07:53:30;;;;;;;15.52;10.25;;;;;;;12.11;78.95;101605.53;5000885;28;20077;-83
2021/11/19 07:56:00;;;;;;;13.48;9.13;;;;;;;12.02;79.89;101600.91;5014633;28;20065;-83
2021/11/19 07:58:31;;;;;;;13.23;9.60;;;;;;;12.02;79.19;101601.75;5021112;28;20061;-87
2021/11/19 08:01:00;;;;;;;12.77;10.13;;;;;;;11.96;79.65;101595.38;5020681;28;20045;-81
2021/11/19 08:03:28;;;;;;;13.93;9.13;;;;;;;12.00;79.93;101614.34;5021666;28;20053;-81
2021/11/19 08:05:59;;;;;;;12.05;8.55;;;;;;;11.96;79.83;101603.75;5028321;28;20065;-82
2021/11/19 08:08:29;;;;;;;15.07;9.95;;;;;;;12.10;79.72;101601.09;5029213;28;20050;-82
2021/11/19 08:10:56;;;;;;;;;;;;;;;12.10;78.95;101591.91;5024502;28;20049;-81
2021/11/19 08:13:25;;;;;;;12.68;9.18;;;;;;;12.18;79.18;101594.84;5032122;28;20384;-81
2021/11/19 08:15:56;;;;;;;15.87;10.13;;;;;;;12.13;79.46;101600.50;5032202;28;20049;-80
2021/11/19 08:18:26;;;;;;;15.40;9.57;;;;;;;12.20;79.32;101597.38;5046346;28;20506;-80
2021/11/19 08:20:55;;;;;;;15.20;10.90;;;;;;;12.04;80.34;101588.31;5032751;28;20509;-81
2021/11/19 08:23:26;;;;;;;12.57;9.60;;;;;;;12.05;79.98;101594.72;5032085;28;20065;-80
2021/11/19 08:25:56;;;;;;;16.30;10.23;;;;;;;12.15;80.10;101594.63;5032426;28;20057;-80
2021/11/19 08:28:26;;;;;;;15.43;10.13;;;;;;;12.05;79.94;101589.16;5032364;28;20061;-80
2021/11/19 08:30:54;;;;;;;13.68;10.40;;;;;;;12.08;79.68;101583.81;5051682;28;20068;-82
2021/11/19 08:33:21;;;;;;;15.15;11.27;;;;;;;12.16;79.34;101588.75;5032881;28;20060;-81
2021/11/19 08:35:48;;;;;;;16.48;10.93;;;;;;;12.27;79.43;101592.22;5027222;28;20479;-81
2021/11/19 08:38:18;;;;;;;14.20;9.02;;;;;;;12.19;79.42;101590.91;5012918;28;20060;-82
2021/11/19 08:40:47;;;;;;;13.40;9.85;;;;;;;12.24;79.28;101592.00;5022694;28;20054;-81
2021/11/19 08:43:17;;;;;;;15.98;10.82;;;;;;;12.18;79.20;101594.03;5032489;28;20418;-81
2021/11/19 08:45:48;;;;;;;14.82;10.23;;;;;;;12.15;80.08;101591.81;5030956;28;20053;-81
2021/11/19 08:48:16;;;;;;;13.27;10.00;;;;;;;12.13;79.55;101599.66;5015129;28;20061;-81
2021/11/19 08:50:45;;;;;;;13.00;9.85;;;;;;;12.30;79.25;101608.38;5036320;28;20068;-81
2021/11/19 08:53:15;;;;;;;14.68;10.75;;;;;;;12.34;79.54;101609.44;5032029;28;20070;-79
2021/11/19 08:55:46;;;;;;;14.68;10.35;;;;;;;12.28;79.24;101604.22;5033346;28;20065;-80
2021/11/19 08:58:14;;;;;;;14.55;10.73;;;;;;;12.21;80.14;101607.38;5037104;28;20143;-80
2021/11/19 09:00:42;;;;;;;17.73;11.35;;;;;;;12.36;79.61;101609.97;5042047;28;20057;-80
2021/11/19 09:03:11;;;;;;;15.35;10.55;;;;;;;12.31;79.37;101609.25;5029676;28;20060;-80
2021/11/19 09:05:42;;;;;;;15.25;10.52;;;;;;;12.31;79.02;101612.84;5026583;28;20061;-80
2021/11/19 09:08:12;;;;;;;16.75;11.07;;;;;;;12.30;79.54;101611.19;5018304;28;20061;-80
2021/11/19 09:10:40;;;;;;;;;;;;;;;12.18;79.66;101611.63;5016849;28;20054;-80
2021/11/19 09:13:10;;;;;;;15.15;11.02;;;;;;;12.22;79.85;101611.00;5015433;28;19921;-80
2021/11/19 09:15:39;;;;;;;16.80;12.07;;;;;;;12.22;80.26;101603.47;5015888;28;20050;-81
2021/11/19 09:18:21;;;;;;;16.40;11.65;;;;;;;12.31;80.00;101598.06;5016485;28;20054;-80
2021/11/19 09:20:59;;;;;;;16.35;12.05;;;;;;;12.26;79.48;101600.91;5003881;28;20084;-80
2021/11/19 09:23:29;;;;;;;18.30;12.00;;;;;;;12.17;80.30;101600.72;4999572;28;20062;-80
2021/11/19 09:25:59;;;;;;;17.67;11.70;;;;;;;12.23;80.28;101601.50;4996625;28;20069;-80
2021/11/19 09:28:30;;;;;;;15.88;10.75;;;;;;;12.19;80.35;101606.84;4997129;28;20070;-80
2021/11/19 09:31:01;;;;;;;14.63;10.73;;;;;;;12.22;80.00;101611.88;5008196;28;20491;-80
2021/11/19 09:33:30;;;;;;;14.10;10.60;;;;;;;12.30;79.79;101608.38;5011651;28;20050;-79
2021/11/19 09:35:58;;;;;;;13.98;9.82;;;;;;;12.32;79.31;101610.88;5001500;28;20059;-79
2021/11/19 09:38:27;;;;;;;13.48;9.93;;;;;;;12.31;78.86;101617.63;5011245;28;20414;-81
2021/11/19 09:41:04;;;;;;;13.82;10.32;;;;;;;12.26;79.35;101614.88;5015235;28;20058;-80
2021/11/19 09:43:39;;;;;;;13.32;9.90;;;;;;;12.18;79.21;101617.22;4996419;28;20054;-80
2021/11/19 09:46:36;;;;;;;12.65;9.60;;;;;;;12.11;79.42;101611.13;5007842;28;20499;-82
2021/11/19 09:49:12;;;;;;;11.38;8.60;;;;;;;12.03;79.10;101608.16;5000478;28;20050;-83
2021/11/19 09:52:24;;;;;;;12.80;9.63;;;;;;;12.12;79.75;101610.00;5018262;28;20521;-87
2021/11/19 09:55:37;;;;;;;13.27;9.63;;;;;;;12.09;79.79;101618.97;4994576;28;20057;-88
2021/11/19 09:58:40;;;;;;;12.40;9.23;;;;;;;12.30;78.29;101618.72;5016080;28;20502;-85
2021/11/19 10:01:49;;;;;;;13.07;9.73;;;;;;;12.21;78.86;101614.94;4990573;28;20064;-84
2021/11/19 10:04:46;;;;;;;12.63;9.77;;;;;;;12.25;78.91;101616.00;5018828;28;20061;-86
2021/11/19 10:07:26;;;;;;;12.25;9.68;;;;;;;12.42;78.61;101609.94;5021664;28;20054;-87
2021/11/19 10:10:04;;;;;;;11.90;8.45;;;;;;;12.35;78.27;101624.28;5038296;28;20053;-81
2021/11/19 10:12:37;;;;;;;10.65;8.85;;;;;;;12.50;77.27;101621.28;5028933;28;20068;-80
2021/11/19 10:15:08;;;;;;;11.38;9.52;;;;;;;12.35;78.22;101611.13;5031607;28;20053;-85
2021/11/19 10:17:57;;;;;;;11.32;8.90;;;;;;;12.51;77.54;101603.38;5033353;28;20050;-85
2021/11/19 10:20:28;;;;;;;11.90;8.90;;;;;;;12.54;77.01;101611.16;5032385;28;20072;-86
2021/11/19 10:23:12;;;;;;;12.02;8.93;;;;;;;12.75;76.74;101600.53;5018871;28;20379;-86
2021/11/19 10:25:54;;;;;;;11.40;9.02;;;;;;;12.85;76.08;101613.56;5024742;28;20062;-86
2021/11/19 10:28:37;;;;;;;11.73;9.40;;;;;;;12.63;76.88;101604.91;5034823;28;20053;-86
2021/11/19 10:31:04;;;;;;;11.98;8.73;;;;;;;12.72;76.17;101617.06;5026077;28;20058;-86
2021/11/19 10:33:36;;;;;;;10.07;8.98;;;;;;;12.75;75.69;101614.50;5030558;28;20049;-88
2021/11/19 10:36:12;;;;;;;10.10;8.15;;;;;;;12.87;75.55;101605.69;5031498;28;20054;-88
2021/11/19 10:39:18;;;;;;;11.90;10.10;;;;;;;12.87;75.82;101597.31;5036062;28;20401;-85
2021/11/19 10:42:36;;;;;;;11.48;9.57;;;;;;;12.62;76.37;101608.81;5003168;28;20425;-86
2021/11/19 10:45:34;;;;;;;12.65;10.05;;;;;;;12.57;76.82;101613.34;5018429;28;20077;-86
2021/11/19 10:48:35;;;;;;;12.63;9.90;;;;;;;12.77;76.18;101603.03;5019817;28;20049;-86
2021/11/19 10:51:47;;;;;;;11.90;9.77;;;;;;;12.88;75.71;101610.13;5028825;28;20387;-86
2021/11/19 10:54:53;;;;;;;11.93;10.18;;;;;;;12.87;75.99;101616.88;5027199;28;20058;-86
2021/11/19 10:57:46;;;;;;;13.68;10.85;;;;;;;12.77;75.83;101611.44;5032124;28;20057;-86
2021/11/19 11:00:38;;;;;;;13.63;10.77;;;;;;;12.95;75.29;101602.19;5022870;28;20509;-86
2021/11/19 11:03:10;;;;;;;16.23;11.80;;;;;;;12.85;76.04;101605.16;5021353;28;20076;-85
2021/11/19 11:05:40;;;;;;;15.57;11.80;;;;;;;12.91;75.95;101608.69;5035023;28;20057;-86
2021/11/19 11:08:21;;;;;;;16.30;13.30;;;;;;;13.00;75.90;101604.91;5034276;28;20503;-86
2021/11/19 11:10:52;;;;;;;18.23;13.98;;;;;;;13.03;75.53;101597.88;5028416;28;20713;-87
2021/11/19 11:13:24;;;;;;;16.17;12.68;;;;;;;12.85;75.70;101607.09;5015530;28;20061;-85
2021/11/19 11:15:56;;;;;;;18.27;13.90;;;;;;;12.87;75.21;101602.91;5026446;28;20056;-86
2021/11/19 11:18:26;;;;;;;18.48;14.52;;;;;;;13.10;74.72;101603.94;5034905;28;20057;-86
2021/11/19 11:21:04;;;;;;;22.45;15.15;;;;;;;13.01;75.18;101597.34;5034413;28;20057;-86
2021/11/19 11:23:35;;;;;;;19.90;15.65;;;;;;;12.92;75.71;101601.97;5035764;28;20076;-84
2021/11/19 11:26:08;;;;;;;22.05;16.35;;;;;;;12.92;75.33;101596.38;5030639;28;20498;-85
2021/11/19 11:28:42;;;;;;;22.52;17.10;;;;;;;12.87;75.66;101597.31;5032443;28;20390;-86
2021/11/19 11:31:46;;;;;;;25.08;18.08;;;;;;;12.91;75.90;101595.53;5042738;28;20053;-86
2021/11/19 11:34:26;;;;;;;24.58;17.58;;;;;;;13.04;75.20;101593.09;5023071;28;20056;-86
2021/11/19 11:37:16;;;;;;;23.38;17.83;;;;;;;12.86;75.30;101592.81;5054781;28;20064;-86
2021/11/19 11:39:51;;;;;;;24.15;17.65;;;;;;;12.97;75.30;101588.72;5038831;28;20060;-86